Narrabri West, New South Wales

2:05 AM AEST on July 27, 2016 (GMT +1000)
Narrabri | | Change Station

Elev 787 ft 30.32 °S, 149.83 °E | Updated 1 hour ago

Clear
Clear
45 °F
Feels Like 41 °F
N
7
Wind Variable Wind from NE

Today
High -- | Low -- °F
--% Chance of Precip.
Yesterday
High -- | Low -- °F
Precip. -- in
Pressure 30.09 in
Visibility 6.2 miles
Clouds
Windchill 41 °F
Dew Point 37 °F
Humidity 76%
Rainfall 0.00 in
Snow Depth Not available.
6:50 AM 5:24 PM
Waning Gibbous, 53% visible
METAR YNBR 261500Z AUTO 05006KT 9999 // NCD 07/03 Q1019
Pressure 30.09 in
Visibility 6.2 miles
Clouds
Windchill 41 °F
Dew Point 37 °F
Humidity 76%
Rainfall 0.00 in
Snow Depth Not available.
6:50 AM 5:24 PM
Waning Gibbous, 53% visible
METAR YNBR 261500Z AUTO 05006KT 9999 // NCD 07/03 Q1019

10-Day Weather Forecast

Almanac

Astronomy

Jul. 27, 2016 Rise Set
Actual Time
Civil Twilight
Nautical Twilight
Astronomical Twilight
Moon
Length of Visible Light
Length of Day
Tomorrow will be .
, % of the Moon is Illuminated

Today's Extremes

Country Highs Country Lows

Community

WunderPhotos

Upload Photos

1,927,625 photos uploaded!

WunderBlog® & News

Nearby

Air Quality

  Air Quality AQ Index Pollutant
Not available.

Snow Depth

Station Depth Elevation

Earthquake Activity

City Distance Mag. Time & Date
Minimum magnitude displayed is 2.5.

Coastal Water Temperatures

Place Temperature

Stations

Nearby Weather Stations

Station Location Temp. Windchill Dew Point Humidity Wind Precip. Elev Updated Type